Time;durP1;ratioP1;P1;durP2;ratioP2;P2;SDS_P1;SDS_P2;PMS_P1;PMS_P2;Temp;Humidity;BMP_temperature;BMP_pressure;BME280_temperature;BME280_humidity;BME280_pressure;Samples;Min_cycle;Max_cycle;Signal;HPM_P1;HPM_P2
2023/02/14 00:00:53;;;;;;;14.50;6.35;;;;;;;0.25;100.00;101663.03;6345515;28;20043;-73
2023/02/14 00:03:59;;;;;;;8.68;5.45;;;;;;;0.09;100.00;101683.47;6345448;28;20045;-75
2023/02/14 00:07:00;;;;;;;15.13;7.95;;;;;;;0.19;100.00;101680.13;6346734;28;20043;-73
2023/02/14 00:10:00;;;;;;;14.32;6.53;;;;;;;0.33;100.00;101656.22;6345471;28;20040;-73
2023/02/14 00:13:01;;;;;;;25.77;7.15;;;;;;;0.44;100.00;101662.31;6345288;28;20463;-73
2023/02/14 00:16:02;;;;;;;8.15;5.25;;;;;;;0.43;100.00;101675.13;6346569;28;20039;-73
2023/02/14 00:19:03;;;;;;;20.63;8.02;;;;;;;0.34;100.00;101688.78;6346512;28;20043;-72
2023/02/14 00:22:04;;;;;;;11.50;6.88;;;;;;;0.39;100.00;101676.81;6345183;28;20110;-73
2023/02/14 00:25:05;;;;;;;16.27;7.10;;;;;;;0.34;100.00;101684.50;6346342;28;20047;-73
2023/02/14 00:28:08;;;;;;;14.75;6.95;;;;;;;0.42;100.00;101691.41;6346319;28;20399;-73
2023/02/14 00:31:12;;;;;;;17.20;6.65;;;;;;;0.51;100.00;101687.19;6346517;28;20040;-73
2023/02/14 00:34:15;;;;;;;21.02;8.45;;;;;;;0.46;100.00;101686.31;6345088;28;20067;-73
2023/02/14 00:37:16;;;;;;;15.52;7.50;;;;;;;0.51;100.00;101686.31;6379155;27;20040;-73
2023/02/14 00:40:18;;;;;;;23.38;8.55;;;;;;;0.54;100.00;101686.34;6345090;28;20074;-73
2023/02/14 00:43:27;;;;;;;15.75;4.88;;;;;;;0.59;100.00;101692.38;6346017;28;20071;-73
2023/02/14 00:46:28;;;;;;;29.55;8.00;;;;;;;0.65;100.00;101683.84;6346061;28;20043;-73
2023/02/14 00:49:29;;;;;;;16.00;6.28;;;;;;;0.66;100.00;101675.28;6344901;28;20044;-73
2023/02/14 00:52:30;;;;;;;11.73;6.00;;;;;;;0.64;100.00;101674.41;6345836;28;20043;-73
2023/02/14 00:55:31;;;;;;;16.02;8.60;;;;;;;0.74;100.00;101682.19;6350365;28;20498;-73
2023/02/14 00:58:32;;;;;;;19.33;7.50;;;;;;;0.72;100.00;101683.91;6351143;28;20067;-73
2023/02/14 01:01:33;;;;;;;19.73;7.90;;;;;;;0.75;99.92;101675.34;6349796;28;20461;-73
2023/02/14 01:04:34;;;;;;;14.43;6.30;;;;;;;0.73;99.60;101664.19;6349768;28;20036;-73
2023/02/14 01:07:35;;;;;;;13.20;5.45;;;;;;;0.87;99.28;101664.28;6349742;28;20372;-73
2023/02/14 01:10:36;;;;;;;9.85;6.40;;;;;;;0.94;98.58;101664.28;6349663;28;20039;-73
2023/02/14 01:13:38;;;;;;;11.88;6.18;;;;;;;0.96;97.84;101661.72;6350652;28;20039;-73
2023/02/14 01:16:38;;;;;;;17.58;6.65;;;;;;;0.98;97.42;101650.59;6350694;28;20054;-76
2023/02/14 01:19:41;;;;;;;14.50;6.30;;;;;;;1.00;97.31;101638.59;6349500;28;20036;-73
2023/02/14 01:22:42;;;;;;;8.45;5.22;;;;;;;1.02;97.03;101646.34;6350447;28;20043;-73
2023/02/14 01:25:45;;;;;;;14.55;6.47;;;;;;;1.00;97.08;101638.59;6350488;28;20043;-73
2023/02/14 01:28:48;;;;;;;14.65;5.63;;;;;;;1.02;96.61;101636.06;6350470;28;20475;-73
2023/02/14 01:31:51;;;;;;;16.40;7.85;;;;;;;1.07;96.54;101641.22;6350124;28;20052;-73
2023/02/14 01:34:52;;;;;;;9.75;5.60;;;;;;;1.06;96.49;101632.66;6350211;28;20042;-73
2023/02/14 01:37:53;;;;;;;17.25;6.60;;;;;;;1.10;95.83;101633.53;6350301;28;20536;-73
2023/02/14 01:40:54;;;;;;;9.30;5.80;;;;;;;1.12;96.27;101632.66;6350149;28;20495;-73
2023/02/14 01:44:00;;;;;;;14.40;6.85;;;;;;;1.14;96.37;101630.09;6348682;28;20051;-73
2023/02/14 01:47:05;;;;;;;14.30;4.95;;;;;;;1.15;96.09;101624.09;6350084;28;20036;-73
2023/02/14 01:50:12;;;;;;;14.25;7.03;;;;;;;1.19;95.66;101626.69;6350107;28;20413;-73
2023/02/14 01:53:18;;;;;;;7.60;5.00;;;;;;;1.18;95.37;101629.25;6348576;28;20415;-73
2023/02/14 01:56:27;;;;;;;15.70;8.20;;;;;;;1.20;95.92;101618.13;6348620;28;20040;-73
2023/02/14 01:59:35;;;;;;;20.77;7.22;;;;;;;1.22;95.76;101625.84;6349756;28;20043;-73
2023/02/14 02:02:38;;;;;;;13.00;7.88;;;;;;;1.18;95.65;101614.69;6348333;28;20066;-73
2023/02/14 02:05:46;;;;;;;24.25;10.23;;;;;;;1.20;95.32;101614.69;6348890;28;20506;-73
2023/02/14 02:09:02;;;;;;;15.52;7.32;;;;;;;1.25;94.71;101614.69;6349547;27;20088;-73
2023/02/14 02:12:03;;;;;;;17.20;6.28;;;;;;;1.28;94.40;101609.56;6348253;28;20039;-73
2023/02/14 02:15:05;;;;;;;17.52;7.63;;;;;;;1.29;94.50;101609.56;6349242;28;20047;-73
2023/02/14 02:18:33;;;;;;;22.08;8.38;;;;;;;1.28;94.52;101605.28;6348084;28;20506;-73
2023/02/14 02:22:03;;;;;;;14.45;7.32;;;;;;;1.28;94.55;101607.84;6347885;28;20043;-73
2023/02/14 02:25:35;;;;;;;13.20;6.70;;;;;;;1.27;94.64;101606.13;6347808;28;20050;-73
2023/02/14 02:29:01;;;;;;;13.13;7.25;;;;;;;1.29;94.88;101603.56;6340639;27;20063;-73
2023/02/14 02:32:40;;;;;;;22.65;6.40;;;;;;;1.30;94.59;101601.00;6347487;28;20055;-73
2023/02/14 02:36:37;;;;;;;13.35;6.63;;;;;;;1.27;94.65;101590.69;6336412;28;20059;-73
2023/02/14 02:39:50;;;;;;;17.83;6.47;;;;;;;1.27;94.60;101608.69;6296800;28;20082;-73
2023/02/14 02:43:29;;;;;;;16.77;7.07;;;;;;;1.27;95.04;101602.69;6347363;28;20042;-73
2023/02/14 02:46:46;;;;;;;18.77;8.38;;;;;;;1.27;94.93;101595.84;6348515;28;20040;-73
2023/02/14 02:53:28;;;;;;;13.93;7.97;;;;;;;1.30;95.16;101611.28;6348348;28;20054;-73
2023/02/14 02:56:48;;;;;;;18.33;7.22;;;;;;;1.26;95.09;101599.28;6347297;28;20613;-73
2023/02/14 02:59:52;;;;;;;15.88;7.30;;;;;;;1.25;95.00;101597.53;6348158;28;20437;-73
2023/02/14 03:06:16;;;;;;;20.73;8.60;;;;;;;1.20;95.21;101596.69;6348048;28;20376;-73
2023/02/14 03:09:26;;;;;;;16.08;7.25;;;;;;;1.21;95.36;101598.41;6348070;28;20042;-73
2023/02/14 03:12:33;;;;;;;25.63;8.43;;;;;;;1.19;95.95;101592.38;6348022;28;20043;-76
2023/02/14 03:15:51;;;;;;;15.98;7.68;;;;;;;1.18;96.24;101594.13;6347784;28;20042;-76
2023/02/14 03:19:17;;;;;;;25.70;6.75;;;;;;;1.14;96.22;101588.97;6346635;28;20040;-76
2023/02/14 03:22:56;;;;;;;13.88;6.05;;;;;;;1.14;96.11;101583.81;6347579;28;20036;-76
2023/02/14 03:26:00;;;;;;;14.55;7.20;;;;;;;1.17;95.65;101587.28;6346250;28;20039;-76
2023/02/14 03:29:12;;;;;;;19.23;7.20;;;;;;;1.17;95.59;101584.69;6347598;28;20039;-76
2023/02/14 03:32:16;;;;;;;11.65;5.75;;;;;;;1.13;96.04;101593.25;6346168;28;20134;-76
2023/02/14 03:35:53;;;;;;;8.45;5.25;;;;;;;1.14;95.32;101596.69;6346224;28;20040;-76
2023/02/14 03:39:13;;;;;;;13.07;6.93;;;;;;;1.14;95.66;101601.81;6344482;27;20048;-76
2023/02/14 03:42:20;;;;;;;7.97;5.47;;;;;;;1.09;95.90;101594.09;6346118;28;20476;-76
2023/02/14 03:45:32;;;;;;;14.35;7.18;;;;;;;1.12;95.73;101596.66;6345889;28;20046;-76
2023/02/14 03:48:35;;;;;;;14.20;6.45;;;;;;;1.16;95.80;101610.41;6345966;28;20036;-76
2023/02/14 03:51:37;;;;;;;11.75;5.85;;;;;;;1.11;96.01;101589.81;6345856;28;20044;-75
2023/02/14 03:54:44;;;;;;;12.07;7.10;;;;;;;1.15;95.90;101595.81;6345683;28;20054;-76
2023/02/14 03:58:03;;;;;;;11.15;5.85;;;;;;;1.16;95.42;101590.69;6345692;28;20062;-76
2023/02/14 04:01:33;;;;;;;16.65;7.30;;;;;;;1.16;96.00;101597.53;6346840;28;20127;-76
2023/02/14 04:04:38;;;;;;;14.80;6.63;;;;;;;1.18;95.89;101593.25;6345429;28;20047;-76
2023/02/14 04:07:50;;;;;;;15.15;7.60;;;;;;;1.17;95.83;101592.41;6346741;28;20067;-73
2023/02/14 04:10:53;;;;;;;19.85;8.23;;;;;;;1.18;96.36;101588.97;6346646;28;20114;-76
2023/02/14 04:13:56;;;;;;;19.38;8.57;;;;;;;1.17;96.83;101594.09;6345291;28;20047;-76
2023/02/14 04:20:21;;;;;;;11.50;6.57;;;;;;;1.24;96.31;101587.28;6346427;28;20040;-76
2023/02/14 04:23:24;;;;;;;17.33;8.05;;;;;;;1.18;96.13;101588.13;6346361;28;20081;-76
2023/02/14 04:26:27;;;;;;;13.48;7.18;;;;;;;1.20;96.67;101587.25;6346234;28;20063;-76
2023/02/14 04:29:28;;;;;;;14.98;6.65;;;;;;;1.23;96.27;101588.13;6346073;28;20046;-76
2023/02/14 04:32:29;;;;;;;18.95;7.45;;;;;;;1.20;96.35;101587.25;6345034;28;20056;-76
2023/02/14 04:35:30;;;;;;;12.65;7.00;;;;;;;1.24;96.80;101595.00;6344907;28;20039;-76
2023/02/14 04:38:31;;;;;;;17.65;6.20;;;;;;;1.23;97.17;101596.69;6346288;28;20040;-76
2023/02/14 04:41:34;;;;;;;20.77;8.38;;;;;;;1.25;97.32;101588.97;6344917;28;20118;-76
2023/02/14 04:44:37;;;;;;;15.15;7.75;;;;;;;1.24;96.66;101583.00;6344978;28;20091;-76
2023/02/14 04:47:40;;;;;;;16.52;7.25;;;;;;;1.28;96.61;101584.72;6345956;28;20042;-76
2023/02/14 04:50:42;;;;;;;16.52;7.70;;;;;;;1.23;96.55;101594.13;6344803;28;20046;-73
2023/02/14 04:53:43;;;;;;;17.67;8.45;;;;;;;1.22;97.37;101597.56;6359883;28;20047;-74
2023/02/14 04:56:44;;;;;;;17.30;6.93;;;;;;;1.22;97.73;101597.56;6371379;27;20039;-73
2023/02/14 04:59:45;;;;;;;13.27;6.78;;;;;;;1.27;97.41;101600.97;6370243;28;20043;-73
2023/02/14 05:02:45;;;;;;;12.32;6.20;;;;;;;1.22;97.44;101596.72;6370115;28;20501;-73
2023/02/14 05:05:46;;;;;;;23.42;6.75;;;;;;;1.18;97.82;101591.53;6371371;27;20041;-73
2023/02/14 05:08:49;;;;;;;15.07;7.55;;;;;;;1.21;97.46;101588.09;6371363;28;20046;-73
2023/02/14 05:11:50;;;;;;;14.10;7.43;;;;;;;1.26;97.63;101603.56;6370086;28;20039;-73
2023/02/14 05:14:51;;;;;;;17.90;7.38;;;;;;;1.20;97.74;101594.13;6369973;28;20444;-73
2023/02/14 05:17:54;;;;;;;18.65;8.07;;;;;;;1.16;98.20;101600.13;6370014;28;20050;-73
2023/02/14 05:20:55;;;;;;;17.58;6.82;;;;;;;1.14;98.31;101605.25;6369981;28;20047;-73
2023/02/14 05:23:55;;;;;;;17.25;8.80;;;;;;;1.11;100.00;101623.25;6369981;28;20056;-73
2023/02/14 05:26:56;;;;;;;14.60;8.52;;;;;;;1.20;99.89;101632.69;6371441;27;20039;-73
2023/02/14 05:29:57;;;;;;;17.85;7.90;;;;;;;1.15;100.00;101629.22;6370114;28;20035;-73
2023/02/14 05:32:59;;;;;;;15.48;7.95;;;;;;;1.20;99.61;101627.56;6369744;28;20055;-73
2023/02/14 05:36:01;;;;;;;14.98;7.65;;;;;;;1.25;99.06;101630.97;6370999;27;20047;-73
2023/02/14 05:39:02;;;;;;;18.40;9.77;;;;;;;1.19;98.51;101634.41;6369968;28;20042;-73
2023/02/14 05:42:03;;;;;;;13.77;7.23;;;;;;;1.17;99.51;101636.13;6372890;27;20071;-74
2023/02/14 05:45:08;;;;;;;19.30;9.23;;;;;;;1.20;99.14;101637.84;6374432;27;20483;-73
2023/02/14 05:48:09;;;;;;;20.77;8.75;;;;;;;1.27;98.24;101639.56;6375558;27;20043;-73
2023/02/14 05:51:10;;;;;;;18.20;7.93;;;;;;;1.27;98.71;101633.56;6374179;27;20042;-73
2023/02/14 05:54:11;;;;;;;22.83;9.02;;;;;;;1.27;99.08;101625.84;6374159;27;20090;-72
2023/02/14 05:57:14;;;;;;;29.00;9.40;;;;;;;1.26;98.96;101635.28;6374182;27;20490;-73
2023/02/14 06:00:15;;;;;;;19.23;7.95;;;;;;;1.27;99.42;101631.84;6373922;27;20141;-73
2023/02/14 06:03:16;;;;;;;22.58;11.40;;;;;;;1.34;98.88;101627.56;6373990;27;20372;-73
2023/02/14 06:06:17;;;;;;;21.00;9.02;;;;;;;1.43;98.22;101631.91;6375012;27;20039;-73
2023/02/14 06:09:20;;;;;;;22.67;10.88;;;;;;;1.21;99.03;101644.69;6375006;27;20449;-73
2023/02/14 06:12:21;;;;;;;22.65;10.52;;;;;;;1.46;97.75;101624.16;6373787;27;20118;-73
2023/02/14 06:15:22;;;;;;;24.05;11.48;;;;;;;1.60;96.47;101635.34;6374858;27;20487;-73
2023/02/14 06:18:26;;;;;;;18.17;9.27;;;;;;;1.61;95.32;101632.78;6373851;27;20038;-73
2023/02/14 06:21:27;;;;;;;17.88;7.85;;;;;;;1.67;94.90;101639.66;6374670;27;20048;-73
2023/02/14 06:24:28;;;;;;;17.90;7.78;;;;;;;1.67;94.92;101637.06;6373463;27;20067;-73
2023/02/14 06:27:30;;;;;;;13.30;7.20;;;;;;;1.66;95.20;101639.63;6374559;27;20149;-73
2023/02/14 06:30:33;;;;;;;13.45;8.48;;;;;;;1.74;94.29;101633.63;6373323;27;20047;-76
2023/02/14 06:33:33;;;;;;;17.63;8.10;;;;;;;1.82;93.54;101620.78;6374309;27;20055;-76
2023/02/14 06:36:34;;;;;;;15.80;6.78;;;;;;;1.86;93.57;101627.66;6373112;27;20039;-76
2023/02/14 06:39:35;;;;;;;18.58;7.97;;;;;;;1.88;93.11;101625.94;6374340;27;20058;-76
2023/02/14 06:42:37;;;;;;;13.07;6.27;;;;;;;1.91;92.79;101627.63;6374105;27;20114;-76
2023/02/14 06:45:42;;;;;;;19.75;7.20;;;;;;;2.00;92.10;101625.94;6374282;27;20122;-76
2023/02/14 06:48:43;;;;;;;15.32;6.75;;;;;;;1.98;92.61;101635.38;6373931;27;20066;-76
2023/02/14 06:51:44;;;;;;;20.48;7.03;;;;;;;2.03;92.18;101627.63;6373692;27;20108;-76
2023/02/14 06:54:45;;;;;;;15.07;8.00;;;;;;;2.08;92.15;101628.50;6373942;27;20376;-76
2023/02/14 06:57:46;;;;;;;9.43;6.20;;;;;;;2.13;91.88;101637.06;6373890;27;20039;-76
2023/02/14 07:00:47;;;;;;;15.40;6.82;;;;;;;2.12;91.59;101640.53;6373747;27;20476;-76
2023/02/14 07:03:47;;;;;;;11.95;6.50;;;;;;;2.18;91.22;101634.47;6373590;27;20361;-76
2023/02/14 07:06:48;;;;;;;16.45;6.30;;;;;;;2.22;90.61;101637.06;6373565;27;20471;-74
2023/02/14 07:09:51;;;;;;;13.73;8.02;;;;;;;2.20;91.06;101640.50;6373565;27;20190;-76
2023/02/14 07:12:52;;;;;;;14.60;8.13;;;;;;;2.22;91.44;101629.34;6373674;27;20125;-73
2023/02/14 07:15:56;;;;;;;17.58;6.70;;;;;;;2.29;90.28;101637.06;6372230;27;20035;-76
2023/02/14 07:18:56;;;;;;;21.90;8.05;;;;;;;2.34;89.65;101627.59;6372178;27;20050;-76
2023/02/14 07:21:57;;;;;;;13.65;7.55;;;;;;;2.34;89.85;101631.03;6372050;27;20039;-76
2023/02/14 07:24:58;;;;;;;12.95;7.18;;;;;;;2.44;89.71;101633.59;6371887;27;20063;-76
2023/02/14 07:27:59;;;;;;;11.77;7.68;;;;;;;2.52;88.40;101640.44;6371785;27;20498;-76
2023/02/14 07:31:00;;;;;;;25.25;9.05;;;;;;;2.56;88.31;101637.00;6371913;27;20045;-76
2023/02/14 07:34:01;;;;;;;21.60;9.15;;;;;;;2.60;87.90;101641.28;6371653;27;20502;-76
2023/02/14 07:37:02;;;;;;;12.80;7.22;;;;;;;2.61;87.34;101639.56;6371694;27;20045;-76
2023/02/14 07:40:05;;;;;;;16.27;8.38;;;;;;;2.68;87.55;101638.69;6372856;27;20056;-76
2023/02/14 07:43:06;;;;;;;19.23;6.95;;;;;;;2.70;87.90;101634.38;6372707;27;20058;-76
2023/02/14 07:46:09;;;;;;;18.02;7.78;;;;;;;2.79;87.52;101644.66;6371478;27;20039;-76
2023/02/14 07:49:10;;;;;;;21.33;8.85;;;;;;;2.84;87.27;101642.06;6372621;27;20125;-76
2023/02/14 07:52:12;;;;;;;19.40;9.43;;;;;;;2.99;86.37;101642.00;6371473;27;20043;-76
2023/02/14 07:55:13;;;;;;;14.13;8.27;;;;;;;3.08;86.20;101641.09;6372426;27;20043;-74
2023/02/14 07:58:14;;;;;;;23.08;11.32;;;;;;;3.18;85.99;101644.50;6371206;27;20039;-73
2023/02/14 08:01:16;;;;;;;32.08;13.40;;;;;;;3.10;85.69;101639.38;6371123;27;20047;-73
2023/02/14 08:04:16;;;;;;;33.30;15.80;;;;;;;3.29;83.98;101631.53;6371767;27;20043;-76
2023/02/14 08:07:17;;;;;;;34.38;12.55;;;;;;;3.29;83.42;101642.72;6372629;27;20753;-76
2023/02/14 08:10:18;;;;;;;20.17;10.63;;;;;;;3.30;84.40;101630.69;6371018;27;20058;-76
2023/02/14 08:13:19;;;;;;;14.32;7.90;;;;;;;3.32;82.19;101641.84;6371072;27;20039;-73
2023/02/14 08:16:20;;;;;;;20.30;8.75;;;;;;;3.41;82.34;101640.06;6370787;27;20039;-74
2023/02/14 08:19:21;;;;;;;16.23;8.45;;;;;;;2.99;84.38;101648.91;6371887;27;20039;-73
2023/02/14 08:22:23;;;;;;;22.50;10.82;;;;;;;3.12;85.58;101650.53;6370710;27;20043;-73
2023/02/14 08:25:26;;;;;;;19.25;8.65;;;;;;;3.31;84.30;101647.88;6370663;27;20047;-73
2023/02/14 08:28:28;;;;;;;17.40;8.38;;;;;;;3.18;84.54;101653.09;6371688;27;20066;-73
2023/02/14 08:31:30;;;;;;;12.52;7.25;;;;;;;3.35;83.51;101652.16;6371929;27;20127;-73
2023/02/14 08:34:33;;;;;;;18.17;7.78;;;;;;;3.09;83.79;101653.16;6370453;27;20073;-73
2023/02/14 08:37:34;;;;;;;22.67;9.37;;;;;;;3.32;83.92;101647.03;6370486;27;20532;-73
2023/02/14 08:40:35;;;;;;;15.27;8.30;;;;;;;3.43;82.82;101647.78;6371597;27;20039;-73
2023/02/14 08:43:36;;;;;;;18.23;7.10;;;;;;;2.84;85.62;101642.06;6370474;28;20047;-74
2023/02/14 08:46:37;;;;;;;20.20;7.38;;;;;;;3.08;86.00;101643.69;6370394;28;20466;-73
2023/02/14 08:49:38;;;;;;;10.75;5.97;;;;;;;3.58;83.33;101652.00;6370297;28;20047;-73
2023/02/14 08:52:42;;;;;;;18.88;8.18;;;;;;;3.51;82.90;101656.34;6370387;28;20051;-73
2023/02/14 08:55:45;;;;;;;13.88;7.38;;;;;;;3.34;83.55;101650.44;6371532;27;20067;-74
2023/02/14 08:58:50;;;;;;;14.75;6.65;;;;;;;3.20;84.85;101664.25;6371425;27;20444;-73
2023/02/14 09:01:53;;;;;;;17.25;8.45;;;;;;;3.79;81.79;101661.34;6370060;28;20049;-73
2023/02/14 09:04:54;;;;;;;13.20;8.65;;;;;;;3.76;82.71;101659.63;6370160;28;20046;-73
2023/02/14 09:07:58;;;;;;;15.77;7.88;;;;;;;3.58;83.98;101664.91;6370056;28;20043;-74
2023/02/14 09:11:05;;;;;;;17.92;8.52;;;;;;;3.39;85.24;101659.00;6370178;28;20411;-73
2023/02/14 09:14:06;;;;;;;16.60;8.38;;;;;;;3.38;86.44;101670.22;6370190;27;20039;-73
2023/02/14 09:17:07;;;;;;;21.08;7.47;;;;;;;3.10;87.16;101674.63;6375152;27;20554;-73
2023/02/14 09:20:09;;;;;;;20.38;10.23;;;;;;;3.33;87.03;101690.00;6374968;27;20043;-74
2023/02/14 09:23:10;;;;;;;;;;;;;;;3.36;86.94;101690.00;6376593;27;20050;-74
2023/02/14 09:26:16;;;;;;;17.20;6.80;;;;;;;3.08;89.57;101686.69;6374929;27;20287;-74
2023/02/14 09:29:17;;;;;;;16.42;7.88;;;;;;;3.01;91.50;101678.97;6375966;27;20039;-74
2023/02/14 09:32:18;;;;;;;24.85;8.35;;;;;;;2.69;93.24;101679.06;6375846;27;20059;-73
2023/02/14 09:35:23;;;;;;;14.70;8.35;;;;;;;2.91;94.27;101674.69;6375813;27;20035;-74
2023/02/14 09:38:24;;;;;;;18.08;8.23;;;;;;;3.36;90.54;101677.09;6374515;27;20036;-74
2023/02/14 09:41:28;;;;;;;22.70;10.13;;;;;;;3.48;90.39;101671.88;6374395;27;20047;-74
2023/02/14 09:44:35;;;;;;;17.92;8.70;;;;;;;3.58;89.40;101680.38;6375691;27;20046;-74
2023/02/14 09:47:46;;;;;;;25.77;12.05;;;;;;;3.17;90.46;101666.00;6375568;27;20448;-74
2023/02/14 09:51:05;;;;;;;16.77;9.85;;;;;;;3.55;90.26;101667.53;6374303;27;20039;-74
2023/02/14 09:54:17;;;;;;;32.63;13.07;;;;;;;3.43;90.38;101663.28;6375797;27;20549;-73
2023/02/14 09:57:31;;;;;;;19.33;9.35;;;;;;;3.99;87.76;101664.59;6375410;27;20066;-74
2023/02/14 10:00:37;;;;;;;26.73;10.60;;;;;;;4.15;87.45;101669.66;6375161;27;20049;-74
2023/02/14 10:03:41;;;;;;;15.65;8.32;;;;;;;4.31;85.88;101668.66;6373962;27;20035;-74
2023/02/14 10:06:51;;;;;;;18.42;10.43;;;;;;;4.09;86.71;101664.53;6375062;27;20118;-74
2023/02/14 10:10:18;;;;;;;14.75;8.57;;;;;;;4.21;86.88;101660.13;6375686;27;20039;-74
2023/02/14 10:13:32;;;;;;;17.10;8.57;;;;;;;4.08;86.74;101652.47;6373801;27;20550;-73
2023/02/14 10:16:42;;;;;;;19.13;8.68;;;;;;;4.32;85.46;101649.69;6374853;27;20092;-74
2023/02/14 10:19:48;;;;;;;16.00;8.57;;;;;;;4.45;85.22;101658.19;6374651;27;20050;-73
2023/02/14 10:23:00;;;;;;;16.10;8.57;;;;;;;4.66;84.31;101654.53;6374593;27;20043;-74
2023/02/14 10:26:04;;;;;;;16.58;9.07;;;;;;;4.84;83.51;101650.88;6368530;27;20115;-74
2023/02/14 10:29:13;;;;;;;27.77;11.75;;;;;;;4.82;81.89;101653.47;6353722;27;20117;-74
2023/02/14 10:32:24;;;;;;;18.65;9.05;;;;;;;4.95;82.24;101651.59;6347748;28;20063;-74
2023/02/14 10:35:49;;;;;;;16.15;9.15;;;;;;;5.05;81.92;101644.59;6347837;28;20499;-74
2023/02/14 10:39:17;;;;;;;14.70;7.63;;;;;;;5.33;81.00;101641.59;6347767;28;20039;-74
2023/02/14 10:42:49;;;;;;;20.90;9.18;;;;;;;5.39;80.43;101639.78;6348791;28;20047;-74
2023/02/14 10:46:09;;;;;;;23.90;9.60;;;;;;;5.61;80.28;101639.50;6347573;28;20548;-74
2023/02/14 10:49:43;;;;;;;26.48;12.48;;;;;;;5.63;78.87;101642.91;6347571;28;20047;-74
2023/02/14 10:53:17;;;;;;;15.75;7.72;;;;;;;5.71;77.86;101629.84;6348611;28;20114;-74
2023/02/14 10:56:30;;;;;;;16.70;7.68;;;;;;;5.87;78.51;101620.97;6344467;28;20059;-74
2023/02/14 10:59:45;;;;;;;;;;;;;;;6.10;76.77;101625.78;6348962;28;20388;-74
2023/02/14 11:02:49;;;;;;;11.40;6.30;;;;;;;6.25;76.49;101627.25;6347286;28;19947;-74
2023/02/14 11:05:50;;;;;;;18.25;9.00;;;;;;;6.33;75.64;101608.97;6347196;28;20042;-74
2023/02/14 11:08:51;;;;;;;20.50;9.20;;;;;;;6.41;74.85;101605.34;6348218;28;20142;-74
2023/02/14 11:11:54;;;;;;;23.48;10.15;;;;;;;6.63;74.97;101610.09;6346982;28;20046;-77
2023/02/14 11:15:19;;;;;;;21.15;10.00;;;;;;;6.94;74.25;101609.47;6348139;28;20575;-77
2023/02/14 11:18:22;;;;;;;23.75;9.68;;;;;;;7.09;74.31;101605.72;6348204;28;20046;-77
2023/02/14 11:21:36;;;;;;;16.25;9.20;;;;;;;7.12;73.64;101595.25;6347870;28;20470;-77
2023/02/14 11:24:41;;;;;;;16.00;7.97;;;;;;;6.59;75.22;101603.25;6347724;28;20044;-77
2023/02/14 11:27:48;;;;;;;17.88;8.50;;;;;;;6.92;74.65;101595.66;6348089;28;20035;-77
2023/02/14 11:30:50;;;;;;;18.42;7.70;;;;;;;7.13;74.21;101591.78;6347700;28;20039;-77
2023/02/14 11:33:53;;;;;;;13.18;8.15;;;;;;;7.37;74.47;101601.63;6347575;28;20120;-77
2023/02/14 11:36:54;;;;;;;15.55;8.55;;;;;;;7.58;72.23;101586.41;6380915;27;20035;-77
2023/02/14 11:40:00;;;;;;;18.98;8.80;;;;;;;8.06;70.15;101591.25;6345139;28;20042;-77
2023/02/14 11:43:18;;;;;;;17.05;8.20;;;;;;;8.42;69.24;101580.78;6346234;28;20185;-77
2023/02/14 11:46:19;;;;;;;14.43;8.77;;;;;;;8.28;68.19;101579.41;6347354;27;20122;-77
2023/02/14 11:49:30;;;;;;;22.25;9.07;;;;;;;8.58;68.01;101576.00;6347260;28;20047;-77
2023/02/14 11:52:38;;;;;;;12.23;6.75;;;;;;;8.63;64.33;101563.75;6347240;28;20043;-77
2023/02/14 11:55:40;;;;;;;11.18;5.68;;;;;;;8.79;61.76;101566.72;6347224;28;20050;-74
2023/02/14 11:58:52;;;;;;;10.77;6.53;;;;;;;8.85;62.72;101558.75;6347088;28;20118;-77
2023/02/14 12:01:54;;;;;;;15.30;6.97;;;;;;;9.37;59.79;101558.88;6347271;28;20115;-77
2023/02/14 12:05:17;;;;;;;17.52;6.72;;;;;;;9.74;60.46;101555.06;6345756;28;20040;-77
2023/02/14 12:08:25;;;;;;;12.48;6.07;;;;;;;10.01;57.94;101546.31;6346780;27;20092;-77
2023/02/14 12:11:31;;;;;;;9.93;5.47;;;;;;;9.97;57.49;101538.66;6346878;28;20063;-77
2023/02/14 12:14:34;;;;;;;13.50;6.15;;;;;;;9.56;58.11;101541.75;6346749;28;20043;-77
2023/02/14 12:17:38;;;;;;;;;;;;;;;9.27;58.79;101535.75;6347213;28;20043;-77
2023/02/14 12:20:48;;;;;;;38.92;17.00;;;;;;;9.33;59.24;101537.31;6379782;27;20268;-77
2023/02/14 12:24:11;;;;;;;12.65;7.15;;;;;;;9.08;59.36;101519.84;6346185;28;20109;-75
2023/02/14 12:27:52;;;;;;;11.55;5.47;;;;;;;9.15;59.72;101533.53;6345459;28;20456;-77
2023/02/14 12:30:55;;;;;;;8.07;4.63;;;;;;;8.84;60.24;101531.03;6346886;28;20048;-74
2023/02/14 12:33:56;;;;;;;8.80;5.43;;;;;;;8.62;61.46;101528.19;6344822;28;20075;-74
2023/02/14 12:37:29;;;;;;;8.38;3.58;;;;;;;8.28;59.18;101535.19;6345034;28;20085;-77
2023/02/14 12:40:39;;;;;;;;;;;;;;;9.20;58.96;101518.59;6342451;28;20060;-77
2023/02/14 12:43:43;;;;;;;14.57;5.22;;;;;;;9.54;58.67;101517.50;6346077;28;19919;-77
2023/02/14 12:47:16;;;;;;;6.93;4.47;;;;;;;9.65;56.70;101525.81;6346210;28;20047;-77
2023/02/14 12:50:32;;;;;;;7.47;4.60;;;;;;;9.60;57.22;101519.91;6339199;28;20059;-77
2023/02/14 12:53:50;;;;;;;17.15;5.72;;;;;;;9.54;57.23;101527.09;6351475;28;20035;-77
2023/02/14 12:56:59;;;;;;;7.68;4.13;;;;;;;9.92;56.17;101525.75;6351376;28;20043;-78
2023/02/14 13:00:11;;;;;;;9.48;4.47;;;;;;;9.55;55.96;101532.22;6351106;28;20543;-74
2023/02/14 13:03:37;;;;;;;7.10;4.28;;;;;;;9.01;56.65;101533.09;6349802;28;20040;-78
2023/02/14 13:06:50;;;;;;;8.43;4.25;;;;;;;9.36;56.21;101531.13;6350011;28;20035;-77
2023/02/14 13:10:01;;;;;;;7.18;4.45;;;;;;;9.35;57.31;101535.50;6349844;28;20071;-77
2023/02/14 13:13:08;;;;;;;11.95;6.38;;;;;;;9.01;58.64;101535.72;6349664;28;20039;-77
2023/02/14 13:16:12;;;;;;;9.00;4.68;;;;;;;8.91;58.36;101524.72;6349614;28;20398;-74
2023/02/14 13:19:47;;;;;;;8.90;4.93;;;;;;;8.99;58.71;101521.88;6349610;28;20042;-74
2023/02/14 13:22:56;;;;;;;9.00;3.85;;;;;;;8.85;58.18;101520.56;6350483;28;20035;-77
2023/02/14 13:26:12;;;;;;;9.50;5.82;;;;;;;8.71;58.48;101509.72;6349433;28;20042;-77
2023/02/14 13:29:18;;;;;;;10.23;4.38;;;;;;;8.64;59.52;101516.84;6349286;28;20074;-73
2023/02/14 13:32:25;;;;;;;9.43;4.10;;;;;;;8.39;58.39;101521.03;6348999;28;20077;-74
2023/02/14 13:35:29;;;;;;;14.45;5.50;;;;;;;8.79;58.73;101514.69;6349256;28;20059;-77
2023/02/14 13:38:31;;;;;;;11.95;4.78;;;;;;;9.13;58.60;101518.84;6349203;28;20125;-74
2023/02/14 13:41:33;;;;;;;;;;;;;;;9.15;56.90;101519.66;6349653;28;20036;-74
2023/02/14 13:44:48;;;;;;;10.15;4.88;;;;;;;9.25;56.39;101519.31;6350228;28;19920;-74
2023/02/14 13:48:06;;;;;;;7.03;3.35;;;;;;;9.23;56.22;101517.66;6350069;28;20042;-74
2023/02/14 13:51:09;;;;;;;9.38;4.55;;;;;;;9.49;56.28;101522.00;6349888;28;20039;-77
2023/02/14 13:54:30;;;;;;;;;;;;;;;9.50;56.52;101520.28;6349281;28;20500;-74
2023/02/14 13:57:36;;;;;;;4.20;3.05;;;;;;;9.69;56.49;101524.78;6349716;27;19924;-74
2023/02/14 14:00:40;;;;;;;5.65;3.55;;;;;;;9.35;56.34;101529.41;6348168;28;20043;-74
2023/02/14 14:03:41;;;;;;;6.55;4.00;;;;;;;9.23;56.61;101525.47;6348004;28;20040;-78
2023/02/14 14:07:04;;;;;;;4.80;3.42;;;;;;;9.16;56.75;101516.16;6348528;28;20507;-77
2023/02/14 14:10:05;;;;;;;10.20;3.70;;;;;;;9.16;57.00;101516.16;6349554;28;20040;-78
2023/02/14 14:13:06;;;;;;;7.10;4.57;;;;;;;8.73;56.79;101520.94;6348365;28;20044;-77
2023/02/14 14:16:22;;;;;;;7.15;3.42;;;;;;;8.90;57.45;101522.19;6348247;28;20096;-73
2023/02/14 14:19:26;;;;;;;7.50;3.95;;;;;;;8.87;57.71;101520.50;6348119;28;20104;-73
2023/02/14 14:22:27;;;;;;;7.03;3.92;;;;;;;8.90;58.04;101516.97;6349640;28;20471;-77
2023/02/14 14:25:40;;;;;;;5.85;3.78;;;;;;;9.02;57.24;101514.84;6349277;28;20074;-77
2023/02/14 14:28:45;;;;;;;6.32;3.78;;;;;;;8.84;58.70;101521.47;6349245;28;20104;-77
2023/02/14 14:31:50;;;;;;;10.65;4.38;;;;;;;8.74;59.59;101520.03;6347873;28;20055;-77
2023/02/14 14:34:56;;;;;;;5.18;3.22;;;;;;;8.48;59.24;101515.59;6347951;28;20499;-77
2023/02/14 14:38:02;;;;;;;8.98;4.18;;;;;;;8.46;59.93;101520.84;6349070;28;20398;-78
2023/02/14 14:41:03;;;;;;;6.93;4.15;;;;;;;8.40;59.31;101515.78;6347863;28;20047;-73